Terminal Aerodrome Forecast
Issued by NWS Milwaukee/Sullivan, WI

Home | Current Version | Previous Version | Text Only | Print | Product List | Glossary On
Versions: 1 2 3 4 5 6 7 8 9 10 11 12 13 14 15 16 17 18 19 20 21 22 23 24 25 26 27 28 29 30 31 32 33 34 35 36 37 38 39 40 41 42 43 44 45 46 47 48 49 50
000
FTUS43 KMKX 261453 AAA
TAFMSN
TAF AMD
KMSN 261453Z 2615/2712 17010KT 1 1/2SM -SN OVC025
      TEMPO 2615/2617 1/2SM SN SCT008 BKN015
     FM261700 17007KT 3SM -SN SCT010 OVC015
     FM262300 17004KT 3SM -FZDZSN BR OVC015
     FM270300 00000KT 3SM -FZDZSN BR OVC010
     FM270600 00000KT 3SM BR OVC008=

USA.gov is the U.S. government's official web portal to all federal, state and local government web resources and services.